sensor_id;sensor_type;location;lat;lon;timestamp;P1;durP1;ratioP1;P2;durP2;ratioP2
18592;SDS011;9426;54.118;17.948;2022-12-18T00:03:29;66.20;;;23.67;;
18592;SDS011;9426;54.118;17.948;2022-12-18T00:08:53;65.43;;;22.67;;
18592;SDS011;9426;54.118;17.948;2022-12-18T00:14:18;64.90;;;21.73;;
18592;SDS011;9426;54.118;17.948;2022-12-18T00:19:42;58.20;;;19.77;;
18592;SDS011;9426;54.118;17.948;2022-12-18T00:25:05;83.13;;;27.90;;
18592;SDS011;9426;54.118;17.948;2022-12-18T00:30:31;51.03;;;19.50;;
18592;SDS011;9426;54.118;17.948;2022-12-18T00:35:54;69.40;;;22.20;;
18592;SDS011;9426;54.118;17.948;2022-12-18T00:41:22;58.50;;;20.57;;
18592;SDS011;9426;54.118;17.948;2022-12-18T00:47:04;54.00;;;20.93;;
18592;SDS011;9426;54.118;17.948;2022-12-18T00:52:27;55.47;;;19.23;;
18592;SDS011;9426;54.118;17.948;2022-12-18T00:57:51;62.47;;;22.87;;
18592;SDS011;9426;54.118;17.948;2022-12-18T01:03:16;58.87;;;20.90;;
18592;SDS011;9426;54.118;17.948;2022-12-18T01:08:39;53.53;;;19.20;;
18592;SDS011;9426;54.118;17.948;2022-12-18T01:14:05;54.23;;;20.53;;
18592;SDS011;9426;54.118;17.948;2022-12-18T01:19:32;54.80;;;19.27;;
18592;SDS011;9426;54.118;17.948;2022-12-18T01:24:57;57.40;;;21.53;;
18592;SDS011;9426;54.118;17.948;2022-12-18T01:30:20;55.03;;;18.70;;
18592;SDS011;9426;54.118;17.948;2022-12-18T01:35:47;49.97;;;18.50;;
18592;SDS011;9426;54.118;17.948;2022-12-18T01:41:11;50.63;;;17.87;;
18592;SDS011;9426;54.118;17.948;2022-12-18T01:46:34;51.70;;;17.90;;
18592;SDS011;9426;54.118;17.948;2022-12-18T01:51:59;46.67;;;15.40;;
18592;SDS011;9426;54.118;17.948;2022-12-18T01:57:23;47.47;;;16.50;;
18592;SDS011;9426;54.118;17.948;2022-12-18T02:02:47;43.43;;;15.60;;
18592;SDS011;9426;54.118;17.948;2022-12-18T02:08:16;41.97;;;15.53;;
18592;SDS011;9426;54.118;17.948;2022-12-18T02:13:45;39.90;;;14.70;;
18592;SDS011;9426;54.118;17.948;2022-12-18T02:19:20;45.50;;;15.60;;
18592;SDS011;9426;54.118;17.948;2022-12-18T02:25:02;40.40;;;13.97;;
18592;SDS011;9426;54.118;17.948;2022-12-18T02:30:35;38.40;;;14.07;;
18592;SDS011;9426;54.118;17.948;2022-12-18T02:36:02;38.20;;;14.27;;
18592;SDS011;9426;54.118;17.948;2022-12-18T02:41:28;48.70;;;17.07;;
18592;SDS011;9426;54.118;17.948;2022-12-18T02:46:54;43.67;;;16.70;;
18592;SDS011;9426;54.118;17.948;2022-12-18T02:52:18;51.70;;;17.97;;
18592;SDS011;9426;54.118;17.948;2022-12-18T02:57:55;47.17;;;17.97;;
18592;SDS011;9426;54.118;17.948;2022-12-18T03:03:28;41.67;;;16.63;;
18592;SDS011;9426;54.118;17.948;2022-12-18T03:08:57;47.93;;;16.67;;
18592;SDS011;9426;54.118;17.948;2022-12-18T03:14:23;44.13;;;16.93;;
18592;SDS011;9426;54.118;17.948;2022-12-18T03:19:53;45.33;;;17.73;;
18592;SDS011;9426;54.118;17.948;2022-12-18T03:25:19;50.83;;;17.80;;
18592;SDS011;9426;54.118;17.948;2022-12-18T03:30:47;47.40;;;16.97;;
18592;SDS011;9426;54.118;17.948;2022-12-18T03:36:19;50.70;;;17.50;;
18592;SDS011;9426;54.118;17.948;2022-12-18T03:41:45;46.60;;;18.03;;
18592;SDS011;9426;54.118;17.948;2022-12-18T03:47:23;44.20;;;16.83;;
18592;SDS011;9426;54.118;17.948;2022-12-18T03:52:57;48.40;;;18.13;;
18592;SDS011;9426;54.118;17.948;2022-12-18T03:58:25;43.77;;;17.07;;
18592;SDS011;9426;54.118;17.948;2022-12-18T04:04:10;48.67;;;16.73;;
18592;SDS011;9426;54.118;17.948;2022-12-18T04:09:37;46.43;;;16.57;;
18592;SDS011;9426;54.118;17.948;2022-12-18T04:15:02;43.53;;;16.57;;
18592;SDS011;9426;54.118;17.948;2022-12-18T04:20:27;37.07;;;15.13;;
18592;SDS011;9426;54.118;17.948;2022-12-18T04:25:51;41.63;;;15.83;;
18592;SDS011;9426;54.118;17.948;2022-12-18T04:31:29;45.20;;;15.37;;
18592;SDS011;9426;54.118;17.948;2022-12-18T04:36:52;46.00;;;14.43;;
18592;SDS011;9426;54.118;17.948;2022-12-18T04:42:18;42.50;;;15.33;;
18592;SDS011;9426;54.118;17.948;2022-12-18T04:47:41;43.50;;;16.47;;
18592;SDS011;9426;54.118;17.948;2022-12-18T04:53:05;42.63;;;15.07;;
18592;SDS011;9426;54.118;17.948;2022-12-18T04:58:29;41.60;;;14.47;;
18592;SDS011;9426;54.118;17.948;2022-12-18T05:03:53;43.73;;;16.67;;
18592;SDS011;9426;54.118;17.948;2022-12-18T05:09:16;44.13;;;16.03;;
18592;SDS011;9426;54.118;17.948;2022-12-18T05:14:40;51.23;;;17.53;;
18592;SDS011;9426;54.118;17.948;2022-12-18T05:20:04;49.40;;;17.20;;
18592;SDS011;9426;54.118;17.948;2022-12-18T05:25:28;50.27;;;17.87;;
18592;SDS011;9426;54.118;17.948;2022-12-18T05:30:53;47.97;;;18.10;;
18592;SDS011;9426;54.118;17.948;2022-12-18T05:36:17;62.20;;;20.23;;
18592;SDS011;9426;54.118;17.948;2022-12-18T05:41:40;49.87;;;17.13;;
18592;SDS011;9426;54.118;17.948;2022-12-18T05:47:05;53.37;;;17.70;;
18592;SDS011;9426;54.118;17.948;2022-12-18T05:52:29;48.87;;;17.50;;
18592;SDS011;9426;54.118;17.948;2022-12-18T05:57:53;50.13;;;16.43;;
18592;SDS011;9426;54.118;17.948;2022-12-18T06:03:18;47.57;;;17.70;;
18592;SDS011;9426;54.118;17.948;2022-12-18T06:08:41;50.07;;;16.83;;
18592;SDS011;9426;54.118;17.948;2022-12-18T06:14:06;51.53;;;17.43;;
18592;SDS011;9426;54.118;17.948;2022-12-18T06:19:30;55.93;;;18.60;;
18592;SDS011;9426;54.118;17.948;2022-12-18T06:24:54;49.93;;;18.20;;
18592;SDS011;9426;54.118;17.948;2022-12-18T06:30:19;48.50;;;16.83;;
18592;SDS011;9426;54.118;17.948;2022-12-18T06:35:43;51.87;;;20.17;;
18592;SDS011;9426;54.118;17.948;2022-12-18T06:41:07;74.23;;;23.87;;
18592;SDS011;9426;54.118;17.948;2022-12-18T06:46:30;70.60;;;21.40;;
18592;SDS011;9426;54.118;17.948;2022-12-18T06:51:55;54.17;;;18.57;;
18592;SDS011;9426;54.118;17.948;2022-12-18T06:57:19;95.70;;;29.63;;
18592;SDS011;9426;54.118;17.948;2022-12-18T07:02:42;79.03;;;21.53;;
18592;SDS011;9426;54.118;17.948;2022-12-18T07:08:06;66.33;;;23.70;;
18592;SDS011;9426;54.118;17.948;2022-12-18T07:13:30;95.27;;;29.83;;
18592;SDS011;9426;54.118;17.948;2022-12-18T07:18:54;63.33;;;20.60;;
18592;SDS011;9426;54.118;17.948;2022-12-18T07:24:19;85.80;;;24.47;;
18592;SDS011;9426;54.118;17.948;2022-12-18T07:29:43;68.57;;;22.67;;
18592;SDS011;9426;54.118;17.948;2022-12-18T07:35:06;70.73;;;23.83;;
18592;SDS011;9426;54.118;17.948;2022-12-18T07:40:31;60.63;;;20.43;;
18592;SDS011;9426;54.118;17.948;2022-12-18T07:45:54;77.33;;;23.83;;
18592;SDS011;9426;54.118;17.948;2022-12-18T07:51:18;162.53;;;41.60;;
18592;SDS011;9426;54.118;17.948;2022-12-18T07:56:43;63.53;;;19.30;;
18592;SDS011;9426;54.118;17.948;2022-12-18T08:02:06;63.97;;;20.90;;
18592;SDS011;9426;54.118;17.948;2022-12-18T08:07:29;83.90;;;24.93;;
18592;SDS011;9426;54.118;17.948;2022-12-18T08:12:54;48.50;;;18.43;;
18592;SDS011;9426;54.118;17.948;2022-12-18T08:18:21;62.17;;;21.10;;
18592;SDS011;9426;54.118;17.948;2022-12-18T08:23:45;59.77;;;19.50;;
18592;SDS011;9426;54.118;17.948;2022-12-18T08:29:10;55.37;;;18.53;;
18592;SDS011;9426;54.118;17.948;2022-12-18T08:34:35;48.70;;;18.23;;
18592;SDS011;9426;54.118;17.948;2022-12-18T08:39:59;53.40;;;18.50;;
18592;SDS011;9426;54.118;17.948;2022-12-18T08:45:23;55.00;;;17.97;;
18592;SDS011;9426;54.118;17.948;2022-12-18T08:50:53;56.80;;;18.37;;
18592;SDS011;9426;54.118;17.948;2022-12-18T08:56:17;58.73;;;19.90;;
18592;SDS011;9426;54.118;17.948;2022-12-18T09:01:42;64.33;;;23.47;;
18592;SDS011;9426;54.118;17.948;2022-12-18T09:07:05;57.70;;;20.57;;
18592;SDS011;9426;54.118;17.948;2022-12-18T09:12:28;62.53;;;20.80;;
18592;SDS011;9426;54.118;17.948;2022-12-18T09:17:54;50.73;;;18.30;;
18592;SDS011;9426;54.118;17.948;2022-12-18T09:23:17;46.63;;;17.73;;
18592;SDS011;9426;54.118;17.948;2022-12-18T09:28:41;50.33;;;18.33;;
18592;SDS011;9426;54.118;17.948;2022-12-18T09:34:06;55.23;;;18.43;;
18592;SDS011;9426;54.118;17.948;2022-12-18T09:39:30;82.27;;;28.87;;
18592;SDS011;9426;54.118;17.948;2022-12-18T09:44:58;104.33;;;36.50;;
18592;SDS011;9426;54.118;17.948;2022-12-18T09:50:25;52.10;;;19.00;;
18592;SDS011;9426;54.118;17.948;2022-12-18T09:55:52;52.90;;;20.07;;
18592;SDS011;9426;54.118;17.948;2022-12-18T10:01:18;48.27;;;16.67;;
18592;SDS011;9426;54.118;17.948;2022-12-18T10:06:46;44.73;;;16.37;;
18592;SDS011;9426;54.118;17.948;2022-12-18T10:12:17;46.73;;;16.97;;
18592;SDS011;9426;54.118;17.948;2022-12-18T10:17:49;40.53;;;14.07;;
18592;SDS011;9426;54.118;17.948;2022-12-18T10:23:19;39.70;;;14.53;;
18592;SDS011;9426;54.118;17.948;2022-12-18T10:28:46;34.47;;;13.07;;
18592;SDS011;9426;54.118;17.948;2022-12-18T10:34:10;37.60;;;13.70;;
18592;SDS011;9426;54.118;17.948;2022-12-18T10:39:35;35.47;;;12.40;;
18592;SDS011;9426;54.118;17.948;2022-12-18T10:45:00;32.40;;;11.97;;
18592;SDS011;9426;54.118;17.948;2022-12-18T10:50:28;31.67;;;11.67;;
18592;SDS011;9426;54.118;17.948;2022-12-18T10:56:08;29.73;;;11.70;;
18592;SDS011;9426;54.118;17.948;2022-12-18T11:01:44;29.63;;;12.13;;
18592;SDS011;9426;54.118;17.948;2022-12-18T11:07:11;27.87;;;12.17;;
18592;SDS011;9426;54.118;17.948;2022-12-18T11:12:36;41.57;;;14.30;;
18592;SDS011;9426;54.118;17.948;2022-12-18T11:17:59;35.27;;;13.83;;
18592;SDS011;9426;54.118;17.948;2022-12-18T11:23:23;35.53;;;13.17;;
18592;SDS011;9426;54.118;17.948;2022-12-18T11:28:49;36.17;;;14.67;;
18592;SDS011;9426;54.118;17.948;2022-12-18T11:34:14;41.13;;;14.07;;
18592;SDS011;9426;54.118;17.948;2022-12-18T11:39:50;43.70;;;15.13;;
18592;SDS011;9426;54.118;17.948;2022-12-18T11:45:25;39.47;;;15.50;;
18592;SDS011;9426;54.118;17.948;2022-12-18T11:50:51;39.30;;;13.87;;
18592;SDS011;9426;54.118;17.948;2022-12-18T12:02:01;33.33;;;13.63;;
18592;SDS011;9426;54.118;17.948;2022-12-18T12:07:47;34.90;;;13.13;;
18592;SDS011;9426;54.118;17.948;2022-12-18T12:13:20;32.10;;;12.17;;
18592;SDS011;9426;54.118;17.948;2022-12-18T12:18:56;27.60;;;11.83;;
18592;SDS011;9426;54.118;17.948;2022-12-18T12:24:36;108.37;;;37.93;;
18592;SDS011;9426;54.118;17.948;2022-12-18T12:30:08;43.03;;;17.77;;
18592;SDS011;9426;54.118;17.948;2022-12-18T12:35:39;39.57;;;16.13;;
18592;SDS011;9426;54.118;17.948;2022-12-18T12:41:12;40.43;;;16.57;;
18592;SDS011;9426;54.118;17.948;2022-12-18T12:46:55;34.63;;;14.57;;
18592;SDS011;9426;54.118;17.948;2022-12-18T12:52:26;37.13;;;15.17;;
18592;SDS011;9426;54.118;17.948;2022-12-18T12:57:55;40.40;;;16.10;;
18592;SDS011;9426;54.118;17.948;2022-12-18T13:03:28;41.40;;;14.47;;
18592;SDS011;9426;54.118;17.948;2022-12-18T13:09:05;40.43;;;15.80;;
18592;SDS011;9426;54.118;17.948;2022-12-18T13:14:29;36.93;;;13.77;;
18592;SDS011;9426;54.118;17.948;2022-12-18T13:20:04;45.63;;;16.63;;
18592;SDS011;9426;54.118;17.948;2022-12-18T13:25:32;41.43;;;15.47;;
18592;SDS011;9426;54.118;17.948;2022-12-18T13:30:58;42.87;;;15.53;;
18592;SDS011;9426;54.118;17.948;2022-12-18T13:36:28;40.27;;;16.27;;
18592;SDS011;9426;54.118;17.948;2022-12-18T13:42:30;42.67;;;16.10;;
18592;SDS011;9426;54.118;17.948;2022-12-18T13:48:18;50.43;;;19.00;;
18592;SDS011;9426;54.118;17.948;2022-12-18T13:53:45;50.17;;;18.87;;
18592;SDS011;9426;54.118;17.948;2022-12-18T13:59:17;57.73;;;18.93;;
18592;SDS011;9426;54.118;17.948;2022-12-18T14:04:44;51.70;;;19.27;;
18592;SDS011;9426;54.118;17.948;2022-12-18T14:10:11;53.80;;;18.63;;
18592;SDS011;9426;54.118;17.948;2022-12-18T14:15:59;45.03;;;17.00;;
18592;SDS011;9426;54.118;17.948;2022-12-18T14:21:25;52.67;;;17.60;;
18592;SDS011;9426;54.118;17.948;2022-12-18T14:26:50;54.17;;;19.47;;
18592;SDS011;9426;54.118;17.948;2022-12-18T14:32:15;57.47;;;18.17;;
18592;SDS011;9426;54.118;17.948;2022-12-18T14:37:40;57.57;;;18.30;;
18592;SDS011;9426;54.118;17.948;2022-12-18T14:43:03;65.17;;;20.13;;
18592;SDS011;9426;54.118;17.948;2022-12-18T14:48:34;71.20;;;21.83;;
18592;SDS011;9426;54.118;17.948;2022-12-18T14:54:00;64.93;;;20.17;;
18592;SDS011;9426;54.118;17.948;2022-12-18T14:59:26;71.23;;;21.27;;
18592;SDS011;9426;54.118;17.948;2022-12-18T15:05:00;79.57;;;23.13;;
18592;SDS011;9426;54.118;17.948;2022-12-18T15:10:29;79.40;;;24.97;;
18592;SDS011;9426;54.118;17.948;2022-12-18T15:15:53;68.70;;;23.17;;
18592;SDS011;9426;54.118;17.948;2022-12-18T15:21:20;84.57;;;25.13;;
18592;SDS011;9426;54.118;17.948;2022-12-18T15:26:44;79.73;;;24.03;;
18592;SDS011;9426;54.118;17.948;2022-12-18T15:32:16;83.10;;;23.57;;
18592;SDS011;9426;54.118;17.948;2022-12-18T15:37:44;76.37;;;22.07;;
18592;SDS011;9426;54.118;17.948;2022-12-18T15:43:08;64.40;;;21.37;;
18592;SDS011;9426;54.118;17.948;2022-12-18T15:48:50;74.40;;;23.47;;
18592;SDS011;9426;54.118;17.948;2022-12-18T15:54:20;84.67;;;24.33;;
18592;SDS011;9426;54.118;17.948;2022-12-18T16:00:10;81.77;;;25.53;;
18592;SDS011;9426;54.118;17.948;2022-12-18T16:05:35;82.93;;;25.23;;
18592;SDS011;9426;54.118;17.948;2022-12-18T16:11:00;77.37;;;23.53;;
18592;SDS011;9426;54.118;17.948;2022-12-18T16:16:23;86.73;;;27.97;;
18592;SDS011;9426;54.118;17.948;2022-12-18T16:21:47;92.47;;;27.70;;
18592;SDS011;9426;54.118;17.948;2022-12-18T16:27:14;87.57;;;25.87;;
18592;SDS011;9426;54.118;17.948;2022-12-18T16:32:37;96.97;;;28.67;;
18592;SDS011;9426;54.118;17.948;2022-12-18T16:38:00;87.40;;;28.30;;
18592;SDS011;9426;54.118;17.948;2022-12-18T16:43:25;93.20;;;30.07;;
18592;SDS011;9426;54.118;17.948;2022-12-18T16:48:49;119.00;;;36.57;;
18592;SDS011;9426;54.118;17.948;2022-12-18T16:54:13;95.03;;;30.17;;
18592;SDS011;9426;54.118;17.948;2022-12-18T16:59:40;101.37;;;30.77;;
18592;SDS011;9426;54.118;17.948;2022-12-18T17:05:04;103.00;;;32.77;;
18592;SDS011;9426;54.118;17.948;2022-12-18T17:10:28;148.83;;;41.73;;
18592;SDS011;9426;54.118;17.948;2022-12-18T17:15:53;114.73;;;34.50;;
18592;SDS011;9426;54.118;17.948;2022-12-18T17:21:18;103.90;;;32.57;;
18592;SDS011;9426;54.118;17.948;2022-12-18T17:26:42;90.97;;;29.50;;
18592;SDS011;9426;54.118;17.948;2022-12-18T17:32:07;102.13;;;33.07;;
18592;SDS011;9426;54.118;17.948;2022-12-18T17:37:31;95.43;;;29.00;;
18592;SDS011;9426;54.118;17.948;2022-12-18T17:42:55;100.27;;;31.63;;
18592;SDS011;9426;54.118;17.948;2022-12-18T17:48:20;98.30;;;28.20;;
18592;SDS011;9426;54.118;17.948;2022-12-18T17:53:44;106.23;;;30.10;;
18592;SDS011;9426;54.118;17.948;2022-12-18T17:59:07;111.00;;;30.63;;
18592;SDS011;9426;54.118;17.948;2022-12-18T18:04:32;99.00;;;27.40;;
18592;SDS011;9426;54.118;17.948;2022-12-18T18:09:55;123.43;;;29.63;;
18592;SDS011;9426;54.118;17.948;2022-12-18T18:15:19;115.67;;;30.57;;
18592;SDS011;9426;54.118;17.948;2022-12-18T18:20:44;91.60;;;27.80;;
18592;SDS011;9426;54.118;17.948;2022-12-18T18:26:08;99.43;;;27.73;;
18592;SDS011;9426;54.118;17.948;2022-12-18T18:31:33;99.97;;;27.20;;
18592;SDS011;9426;54.118;17.948;2022-12-18T18:36:59;110.73;;;28.83;;
18592;SDS011;9426;54.118;17.948;2022-12-18T18:42:23;107.53;;;27.20;;
18592;SDS011;9426;54.118;17.948;2022-12-18T18:47:46;100.50;;;28.83;;
18592;SDS011;9426;54.118;17.948;2022-12-18T18:53:11;110.77;;;29.87;;
18592;SDS011;9426;54.118;17.948;2022-12-18T18:58:34;98.97;;;26.83;;
18592;SDS011;9426;54.118;17.948;2022-12-18T19:03:59;116.07;;;29.83;;
18592;SDS011;9426;54.118;17.948;2022-12-18T19:09:24;115.13;;;31.07;;
18592;SDS011;9426;54.118;17.948;2022-12-18T19:14:48;116.93;;;30.90;;
18592;SDS011;9426;54.118;17.948;2022-12-18T19:20:11;121.27;;;31.17;;
18592;SDS011;9426;54.118;17.948;2022-12-18T19:25:37;124.10;;;32.77;;
18592;SDS011;9426;54.118;17.948;2022-12-18T19:31:02;127.23;;;33.57;;
18592;SDS011;9426;54.118;17.948;2022-12-18T19:36:26;124.93;;;36.10;;
18592;SDS011;9426;54.118;17.948;2022-12-18T19:41:52;129.27;;;31.57;;
18592;SDS011;9426;54.118;17.948;2022-12-18T19:47:16;109.70;;;30.50;;
18592;SDS011;9426;54.118;17.948;2022-12-18T19:52:39;105.57;;;30.27;;
18592;SDS011;9426;54.118;17.948;2022-12-18T19:58:04;143.37;;;33.10;;
18592;SDS011;9426;54.118;17.948;2022-12-18T20:03:27;114.10;;;30.83;;
18592;SDS011;9426;54.118;17.948;2022-12-18T20:08:52;122.80;;;31.03;;
18592;SDS011;9426;54.118;17.948;2022-12-18T20:14:19;113.73;;;30.40;;
18592;SDS011;9426;54.118;17.948;2022-12-18T20:19:43;115.83;;;31.80;;
18592;SDS011;9426;54.118;17.948;2022-12-18T20:25:07;104.23;;;30.00;;
18592;SDS011;9426;54.118;17.948;2022-12-18T20:30:32;118.10;;;32.43;;
18592;SDS011;9426;54.118;17.948;2022-12-18T20:35:59;105.53;;;29.27;;
18592;SDS011;9426;54.118;17.948;2022-12-18T20:41:23;105.17;;;28.30;;
18592;SDS011;9426;54.118;17.948;2022-12-18T20:46:48;113.23;;;29.87;;
18592;SDS011;9426;54.118;17.948;2022-12-18T20:52:13;92.63;;;28.37;;
18592;SDS011;9426;54.118;17.948;2022-12-18T20:57:36;94.60;;;28.40;;
18592;SDS011;9426;54.118;17.948;2022-12-18T21:03:01;87.70;;;27.53;;
18592;SDS011;9426;54.118;17.948;2022-12-18T21:08:25;106.33;;;29.83;;
18592;SDS011;9426;54.118;17.948;2022-12-18T21:13:48;106.37;;;29.80;;
18592;SDS011;9426;54.118;17.948;2022-12-18T21:19:14;114.43;;;32.40;;
18592;SDS011;9426;54.118;17.948;2022-12-18T21:24:40;115.17;;;29.90;;
18592;SDS011;9426;54.118;17.948;2022-12-18T21:30:04;98.20;;;28.83;;
18592;SDS011;9426;54.118;17.948;2022-12-18T21:35:30;98.93;;;28.40;;
18592;SDS011;9426;54.118;17.948;2022-12-18T21:40:54;99.73;;;28.93;;
18592;SDS011;9426;54.118;17.948;2022-12-18T21:46:17;100.63;;;29.07;;
18592;SDS011;9426;54.118;17.948;2022-12-18T21:51:42;90.60;;;26.40;;
18592;SDS011;9426;54.118;17.948;2022-12-18T21:57:06;93.33;;;26.73;;
18592;SDS011;9426;54.118;17.948;2022-12-18T22:02:31;93.90;;;27.80;;
18592;SDS011;9426;54.118;17.948;2022-12-18T22:07:55;94.13;;;26.80;;
18592;SDS011;9426;54.118;17.948;2022-12-18T22:13:18;86.73;;;27.23;;
18592;SDS011;9426;54.118;17.948;2022-12-18T22:18:42;108.70;;;31.10;;
18592;SDS011;9426;54.118;17.948;2022-12-18T22:24:09;101.60;;;31.13;;
18592;SDS011;9426;54.118;17.948;2022-12-18T22:29:35;88.00;;;28.90;;
18592;SDS011;9426;54.118;17.948;2022-12-18T22:35:17;99.67;;;28.50;;
18592;SDS011;9426;54.118;17.948;2022-12-18T22:40:42;92.50;;;28.70;;
18592;SDS011;9426;54.118;17.948;2022-12-18T22:46:05;89.80;;;27.73;;
18592;SDS011;9426;54.118;17.948;2022-12-18T22:51:28;88.80;;;27.30;;
18592;SDS011;9426;54.118;17.948;2022-12-18T22:56:54;95.97;;;25.77;;
18592;SDS011;9426;54.118;17.948;2022-12-18T23:02:17;94.47;;;28.60;;
18592;SDS011;9426;54.118;17.948;2022-12-18T23:07:41;97.30;;;27.33;;
18592;SDS011;9426;54.118;17.948;2022-12-18T23:13:05;92.83;;;26.73;;
18592;SDS011;9426;54.118;17.948;2022-12-18T23:18:30;106.00;;;29.67;;
18592;SDS011;9426;54.118;17.948;2022-12-18T23:23:53;99.03;;;30.73;;
18592;SDS011;9426;54.118;17.948;2022-12-18T23:29:18;108.13;;;29.70;;
18592;SDS011;9426;54.118;17.948;2022-12-18T23:34:42;112.13;;;29.77;;
18592;SDS011;9426;54.118;17.948;2022-12-18T23:40:06;97.03;;;27.67;;
18592;SDS011;9426;54.118;17.948;2022-12-18T23:45:31;97.30;;;27.70;;
18592;SDS011;9426;54.118;17.948;2022-12-18T23:51:03;84.20;;;27.17;;
18592;SDS011;9426;54.118;17.948;2022-12-18T23:56:27;103.80;;;28.83;;
